Spokane, WA (99216)

1:35 PM PDT on July 30, 2015 (GMT -0700)
Broadway Ave | | Change Station
CLOSE
Current Station
Personal Weather Station
Location: Veradale, WA
Elevation: 2057 ft
Nearby Weather Stations

Elev 2057 ft 47.66 °N, 117.19 °W | Updated 11 seconds ago

Clear
Clear
92.1 °F
Feels Like 88 °F
N
2.0
Wind Variable Wind from NNW
Gusts 2.5 mph

Today
High -- | Low -- °F
--% Chance of Precip.
Yesterday
High -- | Low -- °F
Precip. -- in
5:23 AM 8:26 PM
Waxing Gibbous, 99% visible
Pressure 30.11 in
Visibility 10.0 miles
Clouds Clear
Heat Index 88 °F
Dew Point 32 °F
Humidity 12%
Rainfall 0.00 in
Snow Depth Not available.
UV 8.0 out of 12
Pollen 6.10 out of 12
Air Quality Not available.
Flu Activity Not available.
METAR KSFF 301953Z VRB03KT 10SM CLR 33/03 A3016 RMK AO2 SLP195 T03280033

More Conditions Fewer Conditions

Pressure 30.11 in
Visibility 10.0 miles
Clouds Clear
Heat Index 88 °F
Dew Point 32 °F
Humidity 12%
Rainfall 0.00 in
Snow Depth Not available.
UV 8.0 out of 12
Pollen 6.10 out of 12
Air Quality Not available.
Flu Activity Not available.
METAR KSFF 301953Z VRB03KT 10SM CLR 33/03 A3016 RMK AO2 SLP195 T03280033

More Conditions Fewer Conditions

10-Day Weather Forecast

×

Almanac

Astronomy

Jul. 30, 2015 Rise Set
Actual Time
Civil Twilight
Nautical Twilight
Astronomical Twilight
Moon
Length of Visible Light
Length of Day
Tomorrow will be .
, % of the Moon is Illuminated

Today's Extremes

State Highs State Lows

Community

WunderPhotos

Upload Photos

1,842,498 photos uploaded!

WunderBlogs® & News

Nearby

Air Quality

  Air Quality AQ Index Pollutant
Not available.

Snow Depth

Station Depth Elevation

Earthquake Activity

City Distance Mag. Time & Date
Minimum magnitude displayed is 2.5.

Coastal Water Temperatures

Place Temperature

Stations

Nearby Weather Stations

Station Location Temp. Windchill Dew Point Humidity Wind Precip. Elev Updated Type